createdAt,value
2022-09-21T00:01:56.557Z,2.35
2022-09-21T00:04:25.120Z,2.83
2022-09-21T00:06:55.883Z,4.00
2022-09-21T00:09:26.545Z,2.58
2022-09-21T00:11:58.157Z,3.83
2022-09-21T00:14:26.577Z,3.50
2022-09-21T00:16:55.624Z,3.90
2022-09-21T00:19:23.621Z,3.05
2022-09-21T00:21:55.092Z,2.88
2022-09-21T00:24:22.947Z,2.17
2022-09-21T00:26:50.927Z,2.25
2022-09-21T00:29:19.142Z,2.47
2022-09-21T00:31:59.679Z,3.45
2022-09-21T00:34:27.593Z,2.55
2022-09-21T00:36:56.538Z,2.97
2022-09-21T00:39:24.819Z,4.90
2022-09-21T00:41:53.826Z,2.60
2022-09-21T00:44:28.972Z,3.63
2022-09-21T00:47:08.252Z,2.83
2022-09-21T00:49:37.823Z,2.92
2022-09-21T00:52:06.856Z,3.92
2022-09-21T00:54:50.250Z,3.15
2022-09-21T00:57:22.258Z,3.33
2022-09-21T00:59:57.127Z,2.78
2022-09-21T01:02:30.889Z,5.03
2022-09-21T01:05:12.119Z,3.83
2022-09-21T01:07:44.479Z,3.35
2022-09-21T01:10:17.886Z,4.32
2022-09-21T01:13:12.732Z,4.03
2022-09-21T01:16:12.176Z,6.72
2022-09-21T01:19:04.175Z,6.20
2022-09-21T01:21:34.756Z,6.55
2022-09-21T01:24:10.007Z,6.18
2022-09-21T01:26:52.879Z,7.35
2022-09-21T01:29:35.423Z,9.32
2022-09-21T01:32:07.173Z,11.30
2022-09-21T01:34:38.579Z,8.20
2022-09-21T01:37:11.250Z,8.65
2022-09-21T01:39:39.376Z,9.27
2022-09-21T01:42:07.302Z,9.43
2022-09-21T01:44:39.047Z,14.93
2022-09-21T01:47:12.845Z,14.13
2022-09-21T01:50:08.867Z,11.02
2022-09-21T01:52:46.869Z,10.50
2022-09-21T01:55:21.213Z,10.52
2022-09-21T01:58:14.056Z,8.18
2022-09-21T02:00:42.007Z,12.32
2022-09-21T02:03:49.992Z,10.05
2022-09-21T02:06:18.164Z,10.10
2022-09-21T02:08:46.540Z,8.43
2022-09-21T02:11:14.960Z,6.97
2022-09-21T02:13:45.967Z,6.35
2022-09-21T02:16:40.401Z,9.75
2022-09-21T02:19:31.978Z,10.98
2022-09-21T02:22:12.906Z,12.27
2022-09-21T02:24:43.394Z,15.13
2022-09-21T02:27:32.222Z,13.95
2022-09-21T02:30:33.852Z,13.18
2022-09-21T02:33:34.331Z,10.07
2022-09-21T02:36:13.184Z,9.40
2022-09-21T02:38:51.245Z,7.90
2022-09-21T02:41:38.072Z,11.43
2022-09-21T02:44:13.121Z,9.93
2022-09-21T02:47:15.656Z,10.55
2022-09-21T02:49:49.394Z,9.38
2022-09-21T02:52:17.305Z,9.45
2022-09-21T02:54:47.849Z,11.43
2022-09-21T02:57:16.800Z,6.95
2022-09-21T02:59:44.703Z,6.50
2022-09-21T03:02:15.618Z,7.43
2022-09-21T03:04:47.783Z,7.45
2022-09-21T03:07:16.493Z,7.82
2022-09-21T03:09:45.133Z,5.25
2022-09-21T03:12:14.115Z,8.82
2022-09-21T03:14:41.897Z,9.68
2022-09-21T03:17:09.752Z,8.73
2022-09-21T03:19:39.700Z,12.13
2022-09-21T03:22:07.653Z,9.85
2022-09-21T03:24:47.696Z,9.73
2022-09-21T03:27:20.815Z,12.32
2022-09-21T03:29:48.693Z,10.70
2022-09-21T03:32:16.900Z,7.30
2022-09-21T03:34:44.760Z,8.18
2022-09-21T03:37:12.898Z,7.97
2022-09-21T03:39:41.730Z,13.43
2022-09-21T03:42:10.512Z,6.95
2022-09-21T03:44:41.023Z,8.80
2022-09-21T03:47:08.835Z,12.13
2022-09-21T03:49:38.944Z,9.10
2022-09-21T03:52:06.721Z,9.50
2022-09-21T03:54:35.685Z,8.70
2022-09-21T03:57:03.545Z,12.20
2022-09-21T03:59:31.742Z,11.35
2022-09-21T04:01:59.920Z,15.90
2022-09-21T04:04:28.073Z,13.50
2022-09-21T04:06:56.274Z,19.95
2022-09-21T04:09:24.255Z,16.00
2022-09-21T04:11:52.983Z,13.05
2022-09-21T04:14:22.468Z,12.15
2022-09-21T04:16:52.253Z,12.07
2022-09-21T04:19:21.196Z,11.07
2022-09-21T04:21:51.488Z,9.32
2022-09-21T04:24:19.452Z,9.85
2022-09-21T04:26:47.212Z,8.95
2022-09-21T04:29:16.857Z,8.95
2022-09-21T04:31:44.746Z,12.30
2022-09-21T04:34:13.215Z,11.70
2022-09-21T04:36:41.122Z,11.68
2022-09-21T04:39:10.788Z,8.35
2022-09-21T04:41:39.642Z,9.70
2022-09-21T04:44:10.800Z,7.32
2022-09-21T04:46:42.568Z,8.32
2022-09-21T04:49:10.984Z,27.88
2022-09-21T04:51:39.350Z,28.85
2022-09-21T04:54:07.913Z,29.42
2022-09-21T04:56:35.979Z,23.20
2022-09-21T04:59:06.485Z,16.10
2022-09-21T05:01:34.681Z,19.20
2022-09-21T05:04:03.096Z,16.40
2022-09-21T05:06:34.530Z,12.75
2022-09-21T05:09:21.106Z,14.07
2022-09-21T05:11:49.174Z,12.85
2022-09-21T05:14:17.225Z,13.63
2022-09-21T05:16:49.840Z,10.70
2022-09-21T05:19:18.067Z,9.20
2022-09-21T05:21:46.748Z,7.97
2022-09-21T05:24:15.052Z,10.05
2022-09-21T05:26:42.959Z,10.93
2022-09-21T05:29:11.469Z,7.03
2022-09-21T05:31:58.531Z,9.73
2022-09-21T05:34:39.034Z,7.90
2022-09-21T05:37:32.807Z,5.43
2022-09-21T05:40:10.454Z,6.53
2022-09-21T05:42:40.140Z,8.43
2022-09-21T05:45:16.891Z,5.63
2022-09-21T05:48:18.732Z,6.32
2022-09-21T05:50:59.922Z,7.85
2022-09-21T05:53:31.213Z,7.22
2022-09-21T05:56:03.615Z,7.03
2022-09-21T05:58:44.775Z,7.88
2022-09-21T06:01:34.002Z,13.57
2022-09-21T06:04:03.189Z,7.80
2022-09-21T06:06:31.763Z,5.70
2022-09-21T06:08:59.817Z,7.50
2022-09-21T06:11:29.468Z,8.20
2022-09-21T06:13:57.886Z,7.55
2022-09-21T06:16:26.201Z,5.90
2022-09-21T06:18:54.747Z,6.47
2022-09-21T06:21:22.751Z,6.32
2022-09-21T06:23:53.385Z,5.00
2022-09-21T06:26:23.110Z,8.10
2022-09-21T06:28:51.314Z,7.15
2022-09-21T06:31:21.512Z,9.52
2022-09-21T06:33:49.388Z,5.75
2022-09-21T06:36:17.694Z,7.40
2022-09-21T06:38:45.902Z,7.03
2022-09-21T06:41:21.291Z,8.27
2022-09-21T06:43:49.425Z,6.13
2022-09-21T06:46:17.232Z,5.07
2022-09-21T06:48:45.143Z,6.65
2022-09-21T06:51:13.938Z,6.68
2022-09-21T06:53:42.600Z,5.60
2022-09-21T06:56:11.391Z,6.47
2022-09-21T06:58:39.318Z,6.40
2022-09-21T07:01:08.292Z,7.47
2022-09-21T07:03:36.784Z,3.85
2022-09-21T07:06:04.884Z,6.35
2022-09-21T07:11:22.134Z,7.30
2022-09-21T07:13:50.688Z,7.85
2022-09-21T07:16:19.961Z,5.35
2022-09-21T07:18:49.071Z,7.05
2022-09-21T07:21:18.072Z,6.85
2022-09-21T07:23:45.998Z,5.10
2022-09-21T07:26:13.980Z,7.15
2022-09-21T07:28:44.830Z,7.00
2022-09-21T07:31:14.604Z,6.75
2022-09-21T07:33:48.965Z,7.72
2022-09-21T07:36:17.953Z,5.03
2022-09-21T07:38:47.083Z,4.72
2022-09-21T07:41:15.949Z,3.80
2022-09-21T07:43:43.764Z,4.53
2022-09-21T07:46:13.466Z,4.88
2022-09-21T07:48:41.807Z,7.15
2022-09-21T07:51:11.590Z,4.70
2022-09-21T07:53:41.678Z,4.10
2022-09-21T07:56:11.903Z,5.75
2022-09-21T07:58:58.196Z,6.03
2022-09-21T08:01:26.389Z,5.13
2022-09-21T08:03:56.224Z,6.18
2022-09-21T08:06:27.095Z,4.07
2022-09-21T08:08:57.999Z,5.22
2022-09-21T08:11:27.625Z,6.15
2022-09-21T08:13:57.269Z,4.93
2022-09-21T08:16:25.964Z,3.70
2022-09-21T08:18:57.809Z,4.97
2022-09-21T08:21:25.822Z,4.85
2022-09-21T08:23:53.836Z,5.80
2022-09-21T08:26:22.849Z,4.82
2022-09-21T08:28:52.329Z,5.30
2022-09-21T08:31:21.658Z,4.25
2022-09-21T08:33:50.241Z,4.65
2022-09-21T08:36:18.968Z,5.20
2022-09-21T08:38:51.003Z,5.47
2022-09-21T08:41:58.188Z,3.95
2022-09-21T08:44:41.371Z,3.80
2022-09-21T08:47:22.058Z,3.75
2022-09-21T08:49:53.511Z,3.70
2022-09-21T08:52:21.680Z,5.25
2022-09-21T08:54:49.741Z,3.85
2022-09-21T08:57:17.994Z,5.05
2022-09-21T08:59:48.641Z,3.03
2022-09-21T09:02:35.708Z,2.75
2022-09-21T09:05:16.941Z,3.63
2022-09-21T09:08:19.623Z,5.43
2022-09-21T09:11:06.675Z,2.85
2022-09-21T09:13:42.212Z,4.20
2022-09-21T09:16:18.999Z,1.85
2022-09-21T09:19:21.607Z,2.78
2022-09-21T09:21:49.720Z,3.38
2022-09-21T09:24:30.133Z,2.83
2022-09-21T09:27:15.484Z,2.20
2022-09-21T09:30:03.700Z,2.17
2022-09-21T09:32:42.837Z,5.07
2022-09-21T09:35:25.354Z,1.27
2022-09-21T09:38:14.896Z,2.88
2022-09-21T09:40:48.896Z,4.28
2022-09-21T09:43:41.209Z,1.73
2022-09-21T09:46:29.599Z,4.20
2022-09-21T09:49:42.630Z,2.03
2022-09-21T09:52:12.325Z,2.67
2022-09-21T09:54:40.307Z,3.10
2022-09-21T09:57:11.001Z,2.45
2022-09-21T09:59:54.216Z,2.10
2022-09-21T10:02:26.533Z,2.75
2022-09-21T10:05:06.619Z,2.65
2022-09-21T10:07:43.940Z,2.60
2022-09-21T10:10:55.903Z,2.63
2022-09-21T10:13:52.353Z,2.60
2022-09-21T10:16:22.511Z,3.45
2022-09-21T10:19:01.942Z,2.17
2022-09-21T10:22:28.585Z,1.60
2022-09-21T10:25:11.624Z,5.85
2022-09-21T10:27:44.537Z,2.35
2022-09-21T10:30:30.769Z,2.95
2022-09-21T10:32:59.025Z,3.97
2022-09-21T10:35:27.541Z,3.65
2022-09-21T10:38:11.445Z,2.80
2022-09-21T10:40:41.138Z,4.65
2022-09-21T10:43:43.624Z,4.57
2022-09-21T10:46:13.410Z,3.65
2022-09-21T10:48:41.535Z,5.00
2022-09-21T10:51:27.668Z,5.35
2022-09-21T10:53:55.783Z,5.57
2022-09-21T10:56:23.820Z,10.20
2022-09-21T10:59:12.920Z,3.38
2022-09-21T11:01:48.778Z,17.02
2022-09-21T11:07:21.723Z,5.93
2022-09-21T11:10:00.528Z,16.55
2022-09-21T11:12:36.291Z,19.55
2022-09-21T11:15:31.255Z,6.55
2022-09-21T11:18:13.157Z,23.50
2022-09-21T11:21:11.452Z,5.40
2022-09-21T11:24:23.712Z,14.65
2022-09-21T11:29:54.406Z,3.38
2022-09-21T11:33:33.226Z,9.00
2022-09-21T11:36:36.455Z,7.53
2022-09-21T11:39:49.425Z,2.55
2022-09-21T11:43:07.162Z,2.97
2022-09-21T11:45:57.754Z,3.85
2022-09-21T11:48:59.996Z,7.20
2022-09-21T11:51:38.484Z,3.40
2022-09-21T11:55:04.354Z,3.17
2022-09-21T12:01:02.640Z,2.30
2022-09-21T12:03:52.088Z,4.75
2022-09-21T12:06:48.703Z,7.30
2022-09-21T12:09:49.812Z,3.33
2022-09-21T12:12:52.228Z,5.55
2022-09-21T12:15:35.572Z,2.25
2022-09-21T12:18:30.807Z,3.20
2022-09-21T12:24:18.430Z,3.13
2022-09-21T12:26:56.105Z,2.58
2022-09-21T12:29:46.496Z,2.20
2022-09-21T12:32:49.827Z,4.05
2022-09-21T12:35:47.941Z,5.20
2022-09-21T12:38:27.705Z,5.00
2022-09-21T12:41:38.630Z,5.60
2022-09-21T12:44:53.411Z,5.97
2022-09-21T12:47:39.734Z,3.65
2022-09-21T12:50:43.689Z,2.45
2022-09-21T12:53:24.225Z,3.55
2022-09-21T12:56:10.186Z,3.83
2022-09-21T12:59:12.824Z,3.22
2022-09-21T13:01:44.487Z,3.42
2022-09-21T13:04:43.427Z,1.98
2022-09-21T13:07:54.695Z,3.20
2022-09-21T13:10:45.558Z,2.75
2022-09-21T13:13:37.623Z,1.63
2022-09-21T13:16:37.401Z,4.85
2022-09-21T13:19:23.029Z,1.80
2022-09-21T13:22:14.115Z,1.83
2022-09-21T13:24:45.813Z,3.35
2022-09-21T13:27:22.457Z,5.13
2022-09-21T13:29:58.111Z,2.15
2022-09-21T13:32:33.971Z,2.03
2022-09-21T13:35:54.993Z,1.85
2022-09-21T13:38:52.823Z,3.10
2022-09-21T13:41:51.841Z,2.65
2022-09-21T13:44:20.209Z,4.70
2022-09-21T13:46:50.854Z,3.90
2022-09-21T13:49:45.249Z,5.75
2022-09-21T13:52:14.285Z,3.58
2022-09-21T13:54:50.751Z,4.75
2022-09-21T13:57:28.102Z,4.47
2022-09-21T14:00:13.078Z,5.13
2022-09-21T14:02:45.646Z,2.83
2022-09-21T14:05:40.801Z,5.57
2022-09-21T14:08:32.847Z,3.40
2022-09-21T14:11:24.646Z,7.20
2022-09-21T14:14:13.107Z,5.25
2022-09-21T14:16:47.880Z,5.22
2022-09-21T14:19:19.133Z,4.20
2022-09-21T14:22:05.738Z,6.60
2022-09-21T14:24:42.213Z,3.90
2022-09-21T14:27:34.987Z,3.92
2022-09-21T14:30:16.846Z,3.42
2022-09-21T14:33:18.712Z,5.55
2022-09-21T14:35:47.619Z,3.53
2022-09-21T14:38:28.904Z,7.13
2022-09-21T14:41:01.919Z,5.22
2022-09-21T14:43:36.367Z,3.35
2022-09-21T14:46:25.627Z,3.65
2022-09-21T14:49:08.962Z,2.60
2022-09-21T14:51:43.518Z,7.65
2022-09-21T14:54:31.606Z,3.58
2022-09-21T14:57:14.081Z,5.00
2022-09-21T14:59:58.978Z,4.47
2022-09-21T15:02:44.975Z,6.65
2022-09-21T15:05:34.427Z,4.72
2022-09-21T15:09:03.606Z,4.68
2022-09-21T15:11:42.845Z,5.45
2022-09-21T15:14:28.703Z,6.70
2022-09-21T15:16:57.581Z,13.00
2022-09-21T15:19:27.390Z,7.88
2022-09-21T15:22:21.566Z,6.32
2022-09-21T15:24:53.397Z,9.23
2022-09-21T15:27:35.100Z,6.55
2022-09-21T15:30:05.302Z,6.18
2022-09-21T15:32:43.824Z,7.50
2022-09-21T15:35:23.190Z,8.13
2022-09-21T15:37:51.666Z,6.47
2022-09-21T15:40:20.896Z,6.47
2022-09-21T15:43:16.051Z,7.63
2022-09-21T15:45:58.471Z,9.32
2022-09-21T15:48:34.395Z,9.63
2022-09-21T15:51:41.237Z,16.65
2022-09-21T15:54:23.892Z,8.82
2022-09-21T15:56:52.112Z,10.38
2022-09-21T15:59:21.052Z,11.70
2022-09-21T16:01:57.685Z,13.82
2022-09-21T16:04:27.316Z,15.07
2022-09-21T16:07:24.471Z,16.02
2022-09-21T16:09:53.383Z,21.33
2022-09-21T16:12:26.507Z,12.00
2022-09-21T16:14:54.408Z,17.65
2022-09-21T16:17:26.390Z,12.40
2022-09-21T16:20:13.266Z,15.63
2022-09-21T16:22:48.743Z,15.82
2022-09-21T16:25:30.113Z,14.65
2022-09-21T16:28:05.781Z,16.48
2022-09-21T16:30:52.783Z,12.32
2022-09-21T16:33:48.026Z,20.38
2022-09-21T16:36:18.811Z,16.33
2022-09-21T16:38:56.365Z,20.42
2022-09-21T16:41:27.347Z,27.92
2022-09-21T16:43:57.581Z,23.15
2022-09-21T16:46:32.130Z,32.67
2022-09-21T16:49:00.928Z,30.00
2022-09-21T16:51:32.980Z,23.70
2022-09-21T16:54:03.271Z,23.17
2022-09-21T16:56:32.605Z,24.13
2022-09-21T16:59:03.879Z,19.90
2022-09-21T17:01:32.155Z,19.55
2022-09-21T17:03:59.948Z,30.15
2022-09-21T17:06:28.285Z,21.63
2022-09-21T17:08:58.696Z,31.40
2022-09-21T17:11:30.058Z,33.78
2022-09-21T17:14:06.046Z,32.60
2022-09-21T17:16:34.163Z,25.00
2022-09-21T17:19:03.696Z,28.17
2022-09-21T17:21:31.773Z,21.00
2022-09-21T17:23:59.757Z,23.25
2022-09-21T17:26:28.779Z,21.90
2022-09-21T17:28:56.797Z,25.73
2022-09-21T17:31:26.155Z,19.52
2022-09-21T17:33:58.253Z,22.38
2022-09-21T17:36:26.202Z,24.90
2022-09-21T17:38:57.053Z,23.98
2022-09-21T17:41:29.824Z,26.20
2022-09-21T17:44:17.138Z,29.58
2022-09-21T17:47:01.734Z,31.35
2022-09-21T17:49:33.485Z,33.72
2022-09-21T17:52:29.148Z,25.63
2022-09-21T17:55:05.534Z,25.52
2022-09-21T18:00:22.747Z,25.27
2022-09-21T18:02:55.445Z,28.90
2022-09-21T18:05:30.355Z,29.35
2022-09-21T18:08:16.913Z,26.83
2022-09-21T18:11:02.228Z,29.60
2022-09-21T18:14:05.999Z,34.15
2022-09-21T18:17:14.006Z,25.05
2022-09-21T18:19:57.376Z,21.17
2022-09-21T18:22:48.394Z,22.27
2022-09-21T18:25:21.479Z,23.80
2022-09-21T18:27:49.379Z,22.30
2022-09-21T18:30:18.021Z,18.00
2022-09-21T18:33:01.212Z,17.35
2022-09-21T18:35:36.061Z,17.17
2022-09-21T18:38:21.042Z,16.20
2022-09-21T18:41:11.582Z,14.70
2022-09-21T18:43:57.385Z,13.35
2022-09-21T18:46:50.843Z,14.48
2022-09-21T18:49:40.258Z,15.55
2022-09-21T18:52:28.214Z,17.50
2022-09-21T18:54:56.894Z,15.75
2022-09-21T18:57:25.700Z,20.30
2022-09-21T18:59:56.335Z,14.57
2022-09-21T19:02:25.054Z,13.98
2022-09-21T19:04:59.267Z,15.07
2022-09-21T19:07:40.235Z,11.88
2022-09-21T19:10:11.099Z,14.57
2022-09-21T19:12:59.150Z,12.50
2022-09-21T19:16:01.372Z,12.30
2022-09-21T19:18:57.414Z,18.33
2022-09-21T19:21:46.115Z,18.48
2022-09-21T19:24:32.346Z,13.05
2022-09-21T19:27:15.460Z,10.88
2022-09-21T19:29:52.852Z,9.48
2022-09-21T19:32:50.412Z,8.02
2022-09-21T19:35:29.079Z,11.27
2022-09-21T19:37:59.848Z,9.88
2022-09-21T19:40:39.681Z,13.65
2022-09-21T19:43:31.516Z,13.98
2022-09-21T19:46:33.824Z,18.13
2022-09-21T19:49:13.580Z,13.50
2022-09-21T19:51:51.049Z,22.08
2022-09-21T19:54:43.413Z,18.75
2022-09-21T19:57:36.627Z,18.55
2022-09-21T20:00:11.225Z,21.35
2022-09-21T20:02:55.810Z,16.33
2022-09-21T20:06:08.448Z,20.58
2022-09-21T20:08:46.232Z,16.55
2022-09-21T20:11:24.316Z,17.80
2022-09-21T20:15:25.263Z,13.23
2022-09-21T20:18:20.310Z,17.38
2022-09-21T20:20:48.520Z,12.98
2022-09-21T20:23:18.225Z,17.63
2022-09-21T20:26:00.708Z,14.63
2022-09-21T20:28:41.557Z,17.17
2022-09-21T20:31:49.628Z,19.80
2022-09-21T20:34:45.888Z,17.05
2022-09-21T20:37:27.481Z,17.30
2022-09-21T20:39:56.070Z,18.52
2022-09-21T20:42:40.176Z,24.55
2022-09-21T20:45:20.610Z,18.05
2022-09-21T20:47:50.855Z,21.80
2022-09-21T20:50:19.987Z,19.48
2022-09-21T20:53:27.444Z,27.38
2022-09-21T20:55:57.060Z,22.58
2022-09-21T20:58:25.660Z,25.98
2022-09-21T21:00:58.766Z,28.13
2022-09-21T21:03:27.090Z,26.70
2022-09-21T21:06:18.763Z,29.77
2022-09-21T21:11:52.712Z,25.13
2022-09-21T21:14:21.978Z,23.80
2022-09-21T21:16:50.057Z,23.58
2022-09-21T21:19:17.967Z,16.33
2022-09-21T21:21:45.926Z,12.18
2022-09-21T21:24:32.213Z,14.73
2022-09-21T21:27:02.830Z,17.10
2022-09-21T21:29:32.086Z,13.10
2022-09-21T21:32:00.490Z,13.35
2022-09-21T21:34:28.564Z,13.23
2022-09-21T21:36:56.493Z,14.40
2022-09-21T21:39:24.436Z,13.27
2022-09-21T21:41:52.218Z,15.90
2022-09-21T21:44:20.178Z,14.52
2022-09-21T21:46:48.171Z,14.32
2022-09-21T21:49:17.599Z,12.80
2022-09-21T21:51:49.515Z,13.25
2022-09-21T21:54:19.054Z,12.70
2022-09-21T21:56:46.964Z,15.77
2022-09-21T21:59:17.771Z,20.10
2022-09-21T22:01:46.867Z,21.95
2022-09-21T22:04:14.900Z,18.13
2022-09-21T22:06:43.213Z,23.90
2022-09-21T22:09:11.525Z,30.25
2022-09-21T22:11:39.626Z,30.67
2022-09-21T22:14:08.342Z,25.15
2022-09-21T22:16:38.038Z,24.00
2022-09-21T22:19:07.191Z,21.83
2022-09-21T22:21:48.218Z,26.67
2022-09-21T22:24:18.271Z,33.72
2022-09-21T22:26:48.712Z,31.98
2022-09-21T22:29:17.470Z,33.05
2022-09-21T22:31:49.197Z,34.40
2022-09-21T22:34:17.582Z,35.80
2022-09-21T22:36:45.605Z,35.03
2022-09-21T22:39:13.814Z,36.97
2022-09-21T22:41:42.283Z,38.47
2022-09-21T22:44:10.611Z,30.02
2022-09-21T22:46:38.946Z,25.10
2022-09-21T22:49:07.779Z,25.95
2022-09-21T22:51:35.886Z,33.65
2022-09-21T22:54:03.838Z,28.92
2022-09-21T22:56:32.863Z,37.70
2022-09-21T22:59:02.273Z,38.92
2022-09-21T23:01:40.552Z,31.63
2022-09-21T23:04:10.132Z,29.75
2022-09-21T23:06:39.741Z,26.27
2022-09-21T23:09:09.736Z,29.98
2022-09-21T23:11:47.614Z,30.00
2022-09-21T23:14:16.386Z,37.80
2022-09-21T23:16:44.947Z,49.00
2022-09-21T23:19:15.998Z,52.53
2022-09-21T23:21:52.939Z,43.63
2022-09-21T23:24:21.096Z,75.38
2022-09-21T23:26:51.779Z,66.45
2022-09-21T23:29:20.161Z,58.33
2022-09-21T23:31:48.409Z,49.05
2022-09-21T23:34:16.565Z,49.17
2022-09-21T23:36:45.023Z,49.30
2022-09-21T23:39:14.145Z,40.78
2022-09-21T23:41:42.431Z,34.95
2022-09-21T23:44:11.030Z,34.22
2022-09-21T23:46:39.808Z,34.70
2022-09-21T23:49:08.086Z,29.60
2022-09-21T23:51:36.591Z,27.88
2022-09-21T23:54:04.814Z,30.40
2022-09-21T23:56:33.124Z,25.73
2022-09-21T23:59:01.208Z,28.23
